createdAt,value
2018-12-13T00:00:22.903Z,8.13
2018-12-13T00:02:51.943Z,7.77
2018-12-13T00:05:20.993Z,11.67
2018-12-13T00:07:50.061Z,8.07
2018-12-13T00:10:19.104Z,9.50
2018-12-13T00:12:48.171Z,7.33
2018-12-13T00:15:17.262Z,6.67
2018-12-13T00:17:46.320Z,9.83
2018-12-13T00:20:15.378Z,9.57
2018-12-13T00:22:44.439Z,8.07
2018-12-13T00:25:13.483Z,7.87
2018-12-13T00:27:42.518Z,6.70
2018-12-13T00:30:11.601Z,16.77
2018-12-13T00:32:40.648Z,20.30
2018-12-13T00:35:09.688Z,15.13
2018-12-13T00:37:38.778Z,8.50
2018-12-13T00:40:07.832Z,6.63
2018-12-13T00:42:36.875Z,8.67
2018-12-13T00:45:05.942Z,6.27
2018-12-13T00:47:34.984Z,7.00
2018-12-13T00:50:04.034Z,5.80
2018-12-13T00:52:33.113Z,4.87
2018-12-13T00:55:02.149Z,4.80
2018-12-13T00:57:31.215Z,5.33
2018-12-13T01:00:00.305Z,5.37
2018-12-13T01:02:29.347Z,4.97
2018-12-13T01:04:58.402Z,6.90
2018-12-13T01:07:27.544Z,4.70
2018-12-13T01:09:56.597Z,5.80
2018-12-13T01:12:25.637Z,4.93
2018-12-13T01:14:54.708Z,7.07
2018-12-13T01:17:23.754Z,6.27
2018-12-13T01:19:52.804Z,5.57
2018-12-13T01:22:21.897Z,5.67
2018-12-13T01:24:50.942Z,5.97
2018-12-13T01:27:19.979Z,6.97
2018-12-13T01:29:49.048Z,9.47
2018-12-13T01:32:18.094Z,9.33
2018-12-13T01:34:47.135Z,7.87
2018-12-13T01:37:16.209Z,10.03
2018-12-13T01:39:45.251Z,7.57
2018-12-13T01:42:14.294Z,8.30
2018-12-13T01:44:43.411Z,6.33
2018-12-13T01:47:12.443Z,6.70
2018-12-13T01:49:41.493Z,5.67
2018-12-13T01:52:10.566Z,4.87
2018-12-13T01:54:39.617Z,4.83
2018-12-13T01:57:08.671Z,6.80
2018-12-13T01:59:37.742Z,7.97
2018-12-13T02:02:06.786Z,7.40
2018-12-13T02:04:35.832Z,6.47
2018-12-13T02:07:05.243Z,8.17
2018-12-13T02:09:34.294Z,7.23
2018-12-13T02:12:03.357Z,7.50
2018-12-13T02:14:32.437Z,11.77
2018-12-13T02:17:01.489Z,7.87
2018-12-13T02:19:30.544Z,6.20
2018-12-13T02:21:59.627Z,7.07
2018-12-13T02:24:28.667Z,6.37
2018-12-13T02:26:57.716Z,5.30
2018-12-13T02:29:26.887Z,5.77
2018-12-13T02:31:55.933Z,5.63
2018-12-13T02:34:24.981Z,6.17
2018-12-13T02:36:54.053Z,6.07
2018-12-13T02:39:23.107Z,6.40
2018-12-13T02:41:52.142Z,7.73
2018-12-13T02:44:21.423Z,7.10
2018-12-13T02:46:50.480Z,8.87
2018-12-13T02:49:19.532Z,8.40
2018-12-13T02:51:48.629Z,9.87
2018-12-13T02:54:17.676Z,11.13
2018-12-13T02:56:46.728Z,11.47
2018-12-13T02:59:15.797Z,12.33
2018-12-13T03:01:44.852Z,16.27
2018-12-13T03:04:13.912Z,15.10
2018-12-13T03:06:43.076Z,17.73
2018-12-13T03:09:12.120Z,18.37
2018-12-13T03:11:41.174Z,15.03
2018-12-13T03:14:10.286Z,17.37
2018-12-13T03:16:39.350Z,15.63
2018-12-13T03:19:08.407Z,16.67
2018-12-13T03:21:37.486Z,18.50
2018-12-13T03:24:06.535Z,15.57
2018-12-13T03:26:35.594Z,16.03
2018-12-13T03:29:04.672Z,16.20
2018-12-13T03:31:33.723Z,16.13
2018-12-13T03:34:02.784Z,19.43
2018-12-13T03:36:31.909Z,24.27
2018-12-13T03:39:00.964Z,25.27
2018-12-13T03:41:30.026Z,27.40
2018-12-13T03:43:59.115Z,37.67
2018-12-13T03:46:28.167Z,42.23
2018-12-13T03:48:57.222Z,41.37
2018-12-13T03:51:26.306Z,19.83
2018-12-13T03:53:55.350Z,7.83
2018-12-13T03:56:24.395Z,10.03
2018-12-13T03:58:53.474Z,8.53
2018-12-13T04:01:22.528Z,12.17
2018-12-13T04:03:51.576Z,9.20
2018-12-13T04:06:26.739Z,10.20
2018-12-13T04:08:55.788Z,9.70
2018-12-13T04:11:24.844Z,8.83
2018-12-13T04:13:53.916Z,10.50
2018-12-13T04:16:33.840Z,9.07
2018-12-13T04:19:02.938Z,11.63
2018-12-13T04:21:31.978Z,10.03
2018-12-13T04:24:01.022Z,12.00
2018-12-13T04:26:30.087Z,9.47
2018-12-13T04:28:59.136Z,7.43
2018-12-13T04:31:28.185Z,5.57
2018-12-13T04:33:57.261Z,8.63
2018-12-13T04:36:26.303Z,8.10
2018-12-13T04:38:55.368Z,10.63
2018-12-13T04:41:24.480Z,9.90
2018-12-13T04:43:53.527Z,15.33
2018-12-13T04:46:22.573Z,7.17
2018-12-13T04:48:51.678Z,6.90
2018-12-13T04:51:20.716Z,6.93
2018-12-13T04:53:49.777Z,11.33
2018-12-13T04:56:33.883Z,8.30
2018-12-13T04:59:02.934Z,10.73
2018-12-13T05:01:31.990Z,9.83
2018-12-13T05:04:01.056Z,7.83
2018-12-13T05:06:30.107Z,8.93
2018-12-13T05:08:59.149Z,7.50
2018-12-13T05:11:28.227Z,9.60
2018-12-13T05:13:57.287Z,28.83
2018-12-13T05:16:26.359Z,46.63
2018-12-13T05:18:55.465Z,20.63
2018-12-13T05:21:24.524Z,27.37
2018-12-13T05:23:53.593Z,32.57
2018-12-13T05:26:39.731Z,37.30
2018-12-13T05:29:08.793Z,36.30
2018-12-13T05:31:37.843Z,22.13
2018-12-13T05:34:07.031Z,11.90
2018-12-13T05:36:36.088Z,20.43
2018-12-13T05:39:05.130Z,10.77
2018-12-13T05:41:34.234Z,10.43
2018-12-13T05:44:03.287Z,9.90
2018-12-13T05:46:32.332Z,8.83
2018-12-13T05:49:01.412Z,11.77
2018-12-13T05:51:30.503Z,17.03
2018-12-13T05:53:59.554Z,27.70
2018-12-13T05:56:36.454Z,11.30
2018-12-13T05:59:05.504Z,10.07
2018-12-13T06:01:34.555Z,10.87
2018-12-13T06:04:03.639Z,16.50
2018-12-13T06:06:34.656Z,27.10
2018-12-13T06:09:03.710Z,25.30
2018-12-13T06:11:32.794Z,20.13
2018-12-13T06:14:01.854Z,14.70
2018-12-13T06:16:30.909Z,14.27
2018-12-13T06:19:00.015Z,14.17
2018-12-13T06:21:29.073Z,17.57
2018-12-13T06:23:58.130Z,18.30
2018-12-13T06:26:27.215Z,21.03
2018-12-13T06:28:56.263Z,11.47
2018-12-13T06:31:25.343Z,11.53
2018-12-13T06:33:54.502Z,10.47
2018-12-13T06:36:28.813Z,7.27
2018-12-13T06:38:57.926Z,7.60
2018-12-13T06:41:26.973Z,7.37
2018-12-13T06:43:56.010Z,7.23
2018-12-13T06:46:25.093Z,9.70
2018-12-13T06:48:54.147Z,9.80
2018-12-13T06:51:23.185Z,11.77
2018-12-13T06:53:52.257Z,15.43
2018-12-13T06:56:21.323Z,12.13
2018-12-13T06:58:50.379Z,13.57
2018-12-13T07:01:19.474Z,35.07
2018-12-13T07:03:48.534Z,16.53
2018-12-13T07:06:17.588Z,79.17
2018-12-13T07:08:46.666Z,27.10
2018-12-13T07:11:15.707Z,21.30
2018-12-13T07:13:44.762Z,34.57
2018-12-13T07:16:13.829Z,91.83
2018-12-13T07:18:42.881Z,103.73
2018-12-13T07:21:11.948Z,23.83
2018-12-13T07:23:41.041Z,11.93
2018-12-13T07:26:16.164Z,14.33
2018-12-13T07:28:45.277Z,69.17
2018-12-13T07:31:14.335Z,17.20
2018-12-13T07:33:43.400Z,12.17
2018-12-13T07:36:19.930Z,88.27
2018-12-13T07:38:48.994Z,50.90
2018-12-13T07:41:18.146Z,24.57
2018-12-13T07:43:47.249Z,32.77
2018-12-13T07:46:16.309Z,31.53
2018-12-13T07:48:45.370Z,22.33
2018-12-13T07:51:14.451Z,27.63
2018-12-13T07:53:43.505Z,23.20
2018-12-13T07:56:12.667Z,19.30
2018-12-13T07:58:41.687Z,28.60
2018-12-13T08:01:10.748Z,37.10
2018-12-13T08:03:39.810Z,37.63
2018-12-13T08:06:08.944Z,28.43
2018-12-13T08:08:38.004Z,33.87
2018-12-13T08:11:07.065Z,44.93
2018-12-13T08:13:36.150Z,57.37
2018-12-13T08:16:05.204Z,19.63
2018-12-13T08:18:34.255Z,22.03
2018-12-13T08:21:03.345Z,21.47
2018-12-13T08:23:32.405Z,30.87
2018-12-13T08:26:01.461Z,14.43
2018-12-13T08:28:30.577Z,25.80
2018-12-13T08:30:59.634Z,19.77
2018-12-13T08:33:28.699Z,28.47
2018-12-13T08:35:59.789Z,19.23
2018-12-13T08:38:28.845Z,20.40
2018-12-13T08:40:57.896Z,35.83
2018-12-13T08:43:26.986Z,40.07
2018-12-13T08:45:56.052Z,26.47
2018-12-13T08:48:25.118Z,19.90
2018-12-13T08:50:54.372Z,22.00
2018-12-13T08:53:23.279Z,18.83
2018-12-13T08:55:53.355Z,19.47
2018-12-13T08:58:22.442Z,19.60
2018-12-13T09:00:51.503Z,87.17
2018-12-13T09:03:20.579Z,182.23
2018-12-13T09:05:49.671Z,202.57
2018-12-13T09:08:18.772Z,287.40
2018-12-13T09:10:47.837Z,156.67
2018-12-13T09:13:17.243Z,168.70
2018-12-13T09:15:46.303Z,89.63
2018-12-13T09:18:15.360Z,41.70
2018-12-13T09:20:44.448Z,17.27
2018-12-13T09:23:13.505Z,16.40
2018-12-13T09:25:42.558Z,12.53
2018-12-13T09:28:11.647Z,20.37
2018-12-13T09:30:40.704Z,55.50
2018-12-13T09:33:09.772Z,61.30
2018-12-13T09:35:39.003Z,82.43
2018-12-13T09:38:08.060Z,75.50
2018-12-13T09:40:37.124Z,66.67
2018-12-13T09:43:06.205Z,52.57
2018-12-13T09:45:35.264Z,45.67
2018-12-13T09:48:04.325Z,40.53
2018-12-13T09:50:33.417Z,28.07
2018-12-13T09:53:02.490Z,22.03
2018-12-13T09:55:31.545Z,17.03
2018-12-13T09:58:00.653Z,18.77
2018-12-13T10:00:29.717Z,15.83
2018-12-13T10:02:58.762Z,9.23
2018-12-13T10:05:27.868Z,11.67
2018-12-13T10:07:56.924Z,12.13
2018-12-13T10:10:25.982Z,15.13
2018-12-13T10:12:55.075Z,20.77
2018-12-13T10:15:24.146Z,37.93
2018-12-13T10:17:53.197Z,36.47
2018-12-13T10:20:22.334Z,38.50
2018-12-13T10:22:51.399Z,17.20
2018-12-13T10:25:20.453Z,20.43
2018-12-13T10:27:49.543Z,29.40
2018-12-13T10:30:18.597Z,21.30
2018-12-13T10:32:47.649Z,19.07
2018-12-13T10:35:16.826Z,20.70
2018-12-13T10:37:45.881Z,25.30
2018-12-13T10:40:14.937Z,20.43
2018-12-13T10:42:44.037Z,20.73
2018-12-13T10:45:13.091Z,10.23
2018-12-13T10:47:42.147Z,19.60
2018-12-13T10:50:11.242Z,20.67
2018-12-13T10:52:40.294Z,43.80
2018-12-13T10:55:09.377Z,49.57
2018-12-13T10:57:38.483Z,32.40
2018-12-13T11:00:07.541Z,33.53
2018-12-13T11:02:43.203Z,20.20
2018-12-13T11:05:12.258Z,22.03
2018-12-13T11:07:41.317Z,58.37
2018-12-13T11:10:10.394Z,27.43
2018-12-13T11:12:39.444Z,24.73
2018-12-13T11:15:08.492Z,18.70
2018-12-13T11:17:37.569Z,23.53
2018-12-13T11:20:06.626Z,17.87
2018-12-13T11:22:35.689Z,12.67
2018-12-13T11:25:04.944Z,14.93
2018-12-13T11:27:45.808Z,12.47
2018-12-13T11:30:21.426Z,10.83
2018-12-13T11:32:50.481Z,23.93
2018-12-13T11:35:19.558Z,24.50
2018-12-13T11:37:48.648Z,27.67
2018-12-13T11:40:17.714Z,30.60
2018-12-13T11:42:46.774Z,23.90
2018-12-13T11:45:15.889Z,16.20
2018-12-13T11:47:44.957Z,27.17
2018-12-13T11:50:14.017Z,22.47
2018-12-13T11:52:43.103Z,12.20
2018-12-13T11:55:19.778Z,28.20
2018-12-13T11:57:48.857Z,12.00
2018-12-13T12:00:17.913Z,21.13
2018-12-13T12:02:46.976Z,14.90
2018-12-13T12:05:16.082Z,13.13
2018-12-13T12:07:45.148Z,19.50
2018-12-13T12:10:14.225Z,12.97
2018-12-13T12:12:43.297Z,35.07
2018-12-13T12:15:12.361Z,98.03
2018-12-13T12:17:41.425Z,40.87
2018-12-13T12:20:10.504Z,45.93
2018-12-13T12:22:39.577Z,69.07
2018-12-13T12:25:08.646Z,57.47
2018-12-13T12:27:37.731Z,28.40
2018-12-13T12:30:06.788Z,34.07
2018-12-13T12:32:35.850Z,54.57
2018-12-13T12:35:04.965Z,102.00
2018-12-13T12:37:34.015Z,74.73
2018-12-13T12:40:03.078Z,132.93
2018-12-13T12:42:32.180Z,109.07
2018-12-13T12:45:01.245Z,129.10
2018-12-13T12:47:30.296Z,79.70
2018-12-13T12:49:59.397Z,120.57
2018-12-13T12:52:28.441Z,80.30
2018-12-13T12:54:57.509Z,115.97
2018-12-13T12:57:26.603Z,144.97
2018-12-13T12:59:55.691Z,107.50
2018-12-13T13:02:24.776Z,72.60
2018-12-13T13:04:53.862Z,69.80
2018-12-13T13:07:22.942Z,66.47
2018-12-13T13:09:52.074Z,48.73
2018-12-13T13:12:21.299Z,49.00
2018-12-13T13:14:50.400Z,33.47
2018-12-13T13:17:19.511Z,51.50
2018-12-13T13:19:48.602Z,19.43
2018-12-13T13:22:17.659Z,13.50
2018-12-13T13:24:46.721Z,24.87
2018-12-13T13:27:15.815Z,37.30
2018-12-13T13:29:44.873Z,32.57
2018-12-13T13:32:13.983Z,48.77
2018-12-13T13:34:43.129Z,105.27
2018-12-13T13:37:12.197Z,47.30
2018-12-13T13:39:41.264Z,56.30
2018-12-13T13:42:10.348Z,37.20
2018-12-13T13:44:39.422Z,59.77
2018-12-13T13:47:08.490Z,40.77
2018-12-13T13:49:37.594Z,138.87
2018-12-13T13:52:06.668Z,131.17
2018-12-13T13:54:35.746Z,197.70
2018-12-13T13:57:04.868Z,107.47
2018-12-13T13:59:33.931Z,77.90
2018-12-13T14:02:03.003Z,112.97
2018-12-13T14:04:32.099Z,166.37
2018-12-13T14:07:01.173Z,184.40
2018-12-13T14:09:30.231Z,144.40
2018-12-13T14:11:59.321Z,137.50
2018-12-13T14:14:28.383Z,76.83
2018-12-13T14:16:57.451Z,55.30
2018-12-13T14:19:26.572Z,54.73
2018-12-13T14:21:55.630Z,55.00
2018-12-13T14:24:24.693Z,35.57
2018-12-13T14:26:53.806Z,35.07
2018-12-13T14:29:22.877Z,54.73
2018-12-13T14:31:51.948Z,57.47
2018-12-13T14:34:21.024Z,74.63
2018-12-13T14:36:50.083Z,93.80
2018-12-13T14:39:19.145Z,104.73
2018-12-13T14:41:48.285Z,116.57
2018-12-13T14:44:17.350Z,125.27
2018-12-13T14:46:46.425Z,138.67
2018-12-13T14:49:15.525Z,125.40
2018-12-13T14:51:44.598Z,140.27
2018-12-13T14:54:13.670Z,137.37
2018-12-13T14:56:42.776Z,160.20
2018-12-13T14:59:11.841Z,97.07
2018-12-13T15:01:40.898Z,103.60
2018-12-13T15:04:09.998Z,90.80
2018-12-13T15:06:39.057Z,82.07
2018-12-13T15:09:08.117Z,90.67
2018-12-13T15:11:37.487Z,195.00
2018-12-13T15:14:06.569Z,272.50
2018-12-13T15:16:35.626Z,130.77
2018-12-13T15:19:04.718Z,104.97
2018-12-13T15:21:33.829Z,176.87
2018-12-13T15:24:02.904Z,184.33
2018-12-13T15:29:26.347Z,210.83
2018-12-13T15:31:59.353Z,222.63
2018-12-13T15:34:24.919Z,214.53
2018-12-13T15:36:53.989Z,267.60
2018-12-13T15:39:23.080Z,320.07
2018-12-13T15:41:52.189Z,249.50
2018-12-13T15:44:21.232Z,268.53
2018-12-13T15:46:50.365Z,220.33
2018-12-13T15:49:19.440Z,145.73
2018-12-13T15:51:48.509Z,72.83
2018-12-13T15:54:17.621Z,235.90
2018-12-13T15:56:46.698Z,239.50
2018-12-13T15:59:15.787Z,147.73
2018-12-13T16:01:44.885Z,91.17
2018-12-13T16:04:13.957Z,96.53
2018-12-13T16:06:43.024Z,51.27
2018-12-13T16:09:12.474Z,102.53
2018-12-13T16:11:41.528Z,70.77
2018-12-13T16:14:10.586Z,66.47
2018-12-13T16:16:39.698Z,65.60
2018-12-13T16:19:08.755Z,80.10
2018-12-13T16:21:37.821Z,96.03
2018-12-13T16:24:06.908Z,63.30
2018-12-13T16:26:35.969Z,67.53
2018-12-13T16:29:05.032Z,152.53
2018-12-13T16:31:34.163Z,87.20
2018-12-13T16:34:03.228Z,78.73
2018-12-13T16:36:36.839Z,88.97
2018-12-13T16:39:05.898Z,55.47
2018-12-13T16:41:34.959Z,97.70
2018-12-13T16:44:04.047Z,65.60
2018-12-13T16:46:33.123Z,58.17
2018-12-13T16:49:02.182Z,39.60
2018-12-13T16:51:31.352Z,45.93
2018-12-13T16:54:00.421Z,52.10
2018-12-13T16:56:29.484Z,23.00
2018-12-13T16:58:58.573Z,24.93
2018-12-13T17:01:27.773Z,39.57
2018-12-13T17:03:56.802Z,46.27
2018-12-13T17:06:25.931Z,41.80
2018-12-13T17:08:54.992Z,56.57
2018-12-13T17:11:24.052Z,42.87
2018-12-13T17:13:53.168Z,56.07
2018-12-13T17:16:22.238Z,47.33
2018-12-13T17:18:51.315Z,82.07
2018-12-13T17:21:20.399Z,47.57
2018-12-13T17:23:49.468Z,32.87
2018-12-13T17:26:18.535Z,29.37
2018-12-13T17:28:47.626Z,36.80
2018-12-13T17:31:16.687Z,49.83
2018-12-13T17:33:45.754Z,63.80
2018-12-13T17:36:15.067Z,41.87
2018-12-13T17:38:44.134Z,24.63
2018-12-13T17:41:13.184Z,24.60
2018-12-13T17:43:42.272Z,23.10
2018-12-13T17:46:13.351Z,24.23
2018-12-13T17:48:42.436Z,21.30
2018-12-13T17:51:11.496Z,65.13
2018-12-13T17:53:40.562Z,69.43
2018-12-13T17:56:26.602Z,28.63
2018-12-13T17:58:55.679Z,45.90
2018-12-13T18:01:24.747Z,109.60
2018-12-13T18:03:53.839Z,44.43
2018-12-13T18:06:22.906Z,54.27
2018-12-13T18:08:51.974Z,50.20
2018-12-13T18:11:21.069Z,43.57
2018-12-13T18:13:50.131Z,56.63
2018-12-13T18:16:19.189Z,67.17
2018-12-13T18:18:48.328Z,88.03
2018-12-13T18:21:17.440Z,123.07
2018-12-13T18:23:47.025Z,114.97
2018-12-13T18:26:30.260Z,145.20
2018-12-13T18:28:59.330Z,108.77
2018-12-13T18:31:28.396Z,118.67
2018-12-13T18:33:57.517Z,43.10
2018-12-13T18:36:26.577Z,67.83
2018-12-13T18:38:55.635Z,58.97
2018-12-13T18:41:24.732Z,103.37
2018-12-13T18:43:53.808Z,184.47
2018-12-13T18:46:35.761Z,132.13
2018-12-13T18:49:04.818Z,41.13
2018-12-13T18:51:33.898Z,100.20
2018-12-13T18:54:03.026Z,168.83
2018-12-13T18:56:32.098Z,68.73
2018-12-13T18:59:01.160Z,68.83
2018-12-13T19:01:30.250Z,27.10
2018-12-13T19:03:59.324Z,24.00
2018-12-13T19:06:31.550Z,55.83
2018-12-13T19:09:00.614Z,26.03
2018-12-13T19:11:36.371Z,18.67
2018-12-13T19:14:05.470Z,15.73
2018-12-13T19:16:34.562Z,29.70
2018-12-13T19:19:03.631Z,28.37
2018-12-13T19:21:32.753Z,45.63
2018-12-13T19:24:01.821Z,23.67
2018-12-13T19:26:30.881Z,20.63
2018-12-13T19:28:59.964Z,64.33
2018-12-13T19:31:29.033Z,64.57
2018-12-13T19:33:58.158Z,65.83
2018-12-13T19:36:29.352Z,62.03
2018-12-13T19:38:58.408Z,42.43
2018-12-13T19:41:27.478Z,41.90
2018-12-13T19:43:56.560Z,64.33
2018-12-13T19:46:25.622Z,30.00
2018-12-13T19:48:54.690Z,20.73
2018-12-13T19:51:23.814Z,17.07
2018-12-13T19:53:52.872Z,34.37
2018-12-13T19:56:21.943Z,30.73
2018-12-13T19:58:51.083Z,17.90
2018-12-13T20:01:20.139Z,14.83
2018-12-13T20:03:49.216Z,19.60
2018-12-13T20:06:18.391Z,26.43
2018-12-13T20:08:47.451Z,23.20
2018-12-13T20:11:16.504Z,18.73
2018-12-13T20:13:45.592Z,24.63
2018-12-13T20:16:14.638Z,16.53
2018-12-13T20:18:43.705Z,29.63
2018-12-13T20:21:12.812Z,51.13
2018-12-13T20:23:41.864Z,34.63
2018-12-13T20:26:10.932Z,17.90
2018-12-13T20:28:40.018Z,14.83
2018-12-13T20:31:09.064Z,12.37
2018-12-13T20:33:38.124Z,17.43
2018-12-13T20:36:07.199Z,13.33
2018-12-13T20:38:36.272Z,13.87
2018-12-13T20:41:05.339Z,15.17
2018-12-13T20:43:34.563Z,7.93
2018-12-13T20:46:03.624Z,19.00
2018-12-13T20:48:32.670Z,14.80
2018-12-13T20:51:01.848Z,22.80
2018-12-13T20:53:30.909Z,19.20
2018-12-13T20:56:09.551Z,30.93
2018-12-13T20:58:38.605Z,16.73
2018-12-13T21:01:07.663Z,20.33
2018-12-13T21:03:36.771Z,16.00
2018-12-13T21:06:05.830Z,15.20
2018-12-13T21:08:34.897Z,44.93
2018-12-13T21:11:07.385Z,29.57
2018-12-13T21:13:33.065Z,25.57
2018-12-13T21:16:02.312Z,21.50
2018-12-13T21:18:31.209Z,30.37
2018-12-13T21:21:00.269Z,19.87
2018-12-13T21:23:29.329Z,18.73
2018-12-13T21:25:58.466Z,13.47
2018-12-13T21:28:27.523Z,16.67
2018-12-13T21:30:56.579Z,14.80
2018-12-13T21:33:25.658Z,37.57
2018-12-13T21:35:54.744Z,43.27
2018-12-13T21:38:23.776Z,42.63
2018-12-13T21:40:53.200Z,23.67
2018-12-13T21:43:22.268Z,34.80
2018-12-13T21:45:51.338Z,19.63
2018-12-13T21:48:20.488Z,22.43
2018-12-13T21:50:49.559Z,23.70
2018-12-13T21:53:18.617Z,19.57
2018-12-13T21:55:47.731Z,42.27
2018-12-13T21:58:16.794Z,33.70
2018-12-13T22:00:45.867Z,17.33
2018-12-13T22:03:14.937Z,31.33
2018-12-13T22:05:44.000Z,23.17
2018-12-13T22:08:13.064Z,64.50
2018-12-13T22:10:42.262Z,35.83
2018-12-13T22:13:11.347Z,58.53
2018-12-13T22:15:40.411Z,65.43
2018-12-13T22:18:09.504Z,20.70
2018-12-13T22:20:38.573Z,42.23
2018-12-13T22:23:07.639Z,46.90
2018-12-13T22:25:36.735Z,53.37
2018-12-13T22:28:05.803Z,34.93
2018-12-13T22:30:34.878Z,37.40
2018-12-13T22:33:03.999Z,40.37
2018-12-13T22:35:33.135Z,33.13
2018-12-13T22:38:02.212Z,58.83
2018-12-13T22:40:31.302Z,23.60
2018-12-13T22:43:00.385Z,51.40
2018-12-13T22:45:39.331Z,67.13
2018-12-13T22:48:06.771Z,36.47
2018-12-13T22:50:35.919Z,39.00
2018-12-13T22:53:05.118Z,82.83
2018-12-13T22:55:34.217Z,48.03
2018-12-13T22:58:03.300Z,69.63
2018-12-13T23:00:32.358Z,43.30
2018-12-13T23:03:01.434Z,50.07
2018-12-13T23:05:30.512Z,53.70
2018-12-13T23:07:59.566Z,68.57
2018-12-13T23:10:28.641Z,85.43
2018-12-13T23:12:57.803Z,54.60
2018-12-13T23:15:26.873Z,121.10
2018-12-13T23:17:55.952Z,75.27
2018-12-13T23:20:25.097Z,63.17
2018-12-13T23:22:54.165Z,22.03
2018-12-13T23:25:23.229Z,18.80
2018-12-13T23:27:52.316Z,48.97
2018-12-13T23:30:21.385Z,50.00
2018-12-13T23:32:50.456Z,31.43
2018-12-13T23:35:19.609Z,32.23
2018-12-13T23:37:48.679Z,23.10
2018-12-13T23:40:17.745Z,17.87
2018-12-13T23:42:46.830Z,14.43
2018-12-13T23:45:15.879Z,13.90
2018-12-13T23:47:44.927Z,11.03
2018-12-13T23:50:14.125Z,21.73
2018-12-13T23:52:43.190Z,23.67
2018-12-13T23:55:12.254Z,19.40
2018-12-13T23:57:41.372Z,19.67
